sensor_id;sensor_type;location;lat;lon;timestamp;temperature;humidity
33023;DHT22;19390;51.460;5.710;2023-11-21T00:01:17;7.20;99.90
33023;DHT22;19390;51.460;5.710;2023-11-21T00:03:43;7.40;99.90
33023;DHT22;19390;51.460;5.710;2023-11-21T00:06:09;7.40;99.90
33023;DHT22;19390;51.460;5.710;2023-11-21T00:08:35;7.30;99.90
33023;DHT22;19390;51.460;5.710;2023-11-21T00:11:01;7.50;99.90
33023;DHT22;19390;51.460;5.710;2023-11-21T00:13:27;7.30;99.90
33023;DHT22;19390;51.460;5.710;2023-11-21T00:15:52;7.30;99.90
33023;DHT22;19390;51.460;5.710;2023-11-21T00:18:18;7.40;99.90
33023;DHT22;19390;51.460;5.710;2023-11-21T00:20:44;7.40;99.90
33023;DHT22;19390;51.460;5.710;2023-11-21T00:23:09;7.40;99.90
33023;DHT22;19390;51.460;5.710;2023-11-21T00:25:35;7.40;99.90
33023;DHT22;19390;51.460;5.710;2023-11-21T00:28:00;7.40;99.90
33023;DHT22;19390;51.460;5.710;2023-11-21T00:30:27;7.40;99.90
33023;DHT22;19390;51.460;5.710;2023-11-21T00:32:54;7.50;99.90
33023;DHT22;19390;51.460;5.710;2023-11-21T00:35:20;7.50;99.90
33023;DHT22;19390;51.460;5.710;2023-11-21T00:37:45;7.50;99.90
33023;DHT22;19390;51.460;5.710;2023-11-21T00:40:12;7.50;99.90
33023;DHT22;19390;51.460;5.710;2023-11-21T00:42:37;7.60;99.90
33023;DHT22;19390;51.460;5.710;2023-11-21T00:45:03;7.50;99.90
33023;DHT22;19390;51.460;5.710;2023-11-21T00:47:29;7.50;99.90
33023;DHT22;19390;51.460;5.710;2023-11-21T00:49:55;7.60;99.90
33023;DHT22;19390;51.460;5.710;2023-11-21T00:52:20;7.60;99.90
33023;DHT22;19390;51.460;5.710;2023-11-21T00:54:46;7.60;99.90
33023;DHT22;19390;51.460;5.710;2023-11-21T00:57:13;7.60;99.90
33023;DHT22;19390;51.460;5.710;2023-11-21T00:59:39;7.60;99.90
33023;DHT22;19390;51.460;5.710;2023-11-21T01:02:05;7.60;99.90
33023;DHT22;19390;51.460;5.710;2023-11-21T01:04:31;7.60;99.90
33023;DHT22;19390;51.460;5.710;2023-11-21T01:06:57;7.60;99.90
33023;DHT22;19390;51.460;5.710;2023-11-21T01:09:23;7.60;99.90
33023;DHT22;19390;51.460;5.710;2023-11-21T01:11:49;7.50;99.90
33023;DHT22;19390;51.460;5.710;2023-11-21T01:14:15;7.50;99.90
33023;DHT22;19390;51.460;5.710;2023-11-21T01:16:43;7.40;99.90
33023;DHT22;19390;51.460;5.710;2023-11-21T01:19:08;7.40;99.90
33023;DHT22;19390;51.460;5.710;2023-11-21T01:21:34;7.40;99.90
33023;DHT22;19390;51.460;5.710;2023-11-21T01:24:00;7.40;99.90
33023;DHT22;19390;51.460;5.710;2023-11-21T01:26:25;7.30;99.90
33023;DHT22;19390;51.460;5.710;2023-11-21T01:28:51;7.30;99.90
33023;DHT22;19390;51.460;5.710;2023-11-21T01:31:16;7.30;99.90
33023;DHT22;19390;51.460;5.710;2023-11-21T01:33:42;7.20;99.90
33023;DHT22;19390;51.460;5.710;2023-11-21T01:36:08;7.20;99.90
33023;DHT22;19390;51.460;5.710;2023-11-21T01:38:34;7.20;99.90
33023;DHT22;19390;51.460;5.710;2023-11-21T01:41:00;7.10;99.90
33023;DHT22;19390;51.460;5.710;2023-11-21T01:43:26;7.10;99.90
33023;DHT22;19390;51.460;5.710;2023-11-21T01:45:55;7.20;99.90
33023;DHT22;19390;51.460;5.710;2023-11-21T01:48:24;7.20;99.90
33023;DHT22;19390;51.460;5.710;2023-11-21T01:50:50;7.20;99.90
33023;DHT22;19390;51.460;5.710;2023-11-21T01:53:16;7.30;99.90
33023;DHT22;19390;51.460;5.710;2023-11-21T01:55:45;7.20;99.90
33023;DHT22;19390;51.460;5.710;2023-11-21T01:58:11;7.20;99.90
33023;DHT22;19390;51.460;5.710;2023-11-21T02:00:38;7.20;99.90
33023;DHT22;19390;51.460;5.710;2023-11-21T02:03:04;7.30;99.90
33023;DHT22;19390;51.460;5.710;2023-11-21T02:05:30;7.30;99.90
33023;DHT22;19390;51.460;5.710;2023-11-21T02:07:55;7.30;99.90
33023;DHT22;19390;51.460;5.710;2023-11-21T02:10:22;7.20;99.90
33023;DHT22;19390;51.460;5.710;2023-11-21T02:12:50;7.20;99.90
33023;DHT22;19390;51.460;5.710;2023-11-21T02:15:17;7.30;99.90
33023;DHT22;19390;51.460;5.710;2023-11-21T02:17:46;7.30;99.90
33023;DHT22;19390;51.460;5.710;2023-11-21T02:20:17;7.30;99.90
33023;DHT22;19390;51.460;5.710;2023-11-21T02:22:48;7.40;99.90
33023;DHT22;19390;51.460;5.710;2023-11-21T02:25:14;7.40;99.90
33023;DHT22;19390;51.460;5.710;2023-11-21T02:27:39;7.40;99.90
33023;DHT22;19390;51.460;5.710;2023-11-21T02:30:05;7.40;99.90
33023;DHT22;19390;51.460;5.710;2023-11-21T02:32:33;7.40;99.90
33023;DHT22;19390;51.460;5.710;2023-11-21T02:34:58;7.40;99.90
33023;DHT22;19390;51.460;5.710;2023-11-21T02:37:27;7.50;99.90
33023;DHT22;19390;51.460;5.710;2023-11-21T02:39:52;7.50;99.90
33023;DHT22;19390;51.460;5.710;2023-11-21T02:42:18;7.50;99.90
33023;DHT22;19390;51.460;5.710;2023-11-21T02:44:44;7.50;99.90
33023;DHT22;19390;51.460;5.710;2023-11-21T02:47:09;7.50;99.90
33023;DHT22;19390;51.460;5.710;2023-11-21T02:49:35;7.50;99.90
33023;DHT22;19390;51.460;5.710;2023-11-21T02:52:01;7.60;99.90
33023;DHT22;19390;51.460;5.710;2023-11-21T02:54:27;7.60;99.90
33023;DHT22;19390;51.460;5.710;2023-11-21T02:56:53;7.50;99.90
33023;DHT22;19390;51.460;5.710;2023-11-21T02:59:18;7.50;99.90
33023;DHT22;19390;51.460;5.710;2023-11-21T03:01:45;7.50;99.90
33023;DHT22;19390;51.460;5.710;2023-11-21T03:04:11;7.40;99.90
33023;DHT22;19390;51.460;5.710;2023-11-21T03:06:36;7.40;99.90
33023;DHT22;19390;51.460;5.710;2023-11-21T03:09:02;7.40;99.90
33023;DHT22;19390;51.460;5.710;2023-11-21T03:11:27;7.40;99.90
33023;DHT22;19390;51.460;5.710;2023-11-21T03:13:53;7.40;99.90
33023;DHT22;19390;51.460;5.710;2023-11-21T03:16:19;7.40;99.90
33023;DHT22;19390;51.460;5.710;2023-11-21T03:18:44;7.40;99.90
33023;DHT22;19390;51.460;5.710;2023-11-21T03:21:10;7.40;99.90
33023;DHT22;19390;51.460;5.710;2023-11-21T03:23:36;7.40;99.90
33023;DHT22;19390;51.460;5.710;2023-11-21T03:26:03;7.40;99.90
33023;DHT22;19390;51.460;5.710;2023-11-21T03:28:29;7.40;99.90
33023;DHT22;19390;51.460;5.710;2023-11-21T03:30:56;7.30;99.90
33023;DHT22;19390;51.460;5.710;2023-11-21T03:33:22;7.30;99.90
33023;DHT22;19390;51.460;5.710;2023-11-21T03:35:48;7.30;99.90
33023;DHT22;19390;51.460;5.710;2023-11-21T03:38:14;7.30;99.90
33023;DHT22;19390;51.460;5.710;2023-11-21T03:40:41;7.30;99.90
33023;DHT22;19390;51.460;5.710;2023-11-21T03:43:07;7.20;99.90
33023;DHT22;19390;51.460;5.710;2023-11-21T03:45:32;7.20;99.90
33023;DHT22;19390;51.460;5.710;2023-11-21T03:47:58;7.20;99.90
33023;DHT22;19390;51.460;5.710;2023-11-21T03:50:28;7.20;99.90
33023;DHT22;19390;51.460;5.710;2023-11-21T03:52:53;7.20;99.90
33023;DHT22;19390;51.460;5.710;2023-11-21T03:55:19;7.20;99.90
33023;DHT22;19390;51.460;5.710;2023-11-21T03:57:44;7.20;99.90
33023;DHT22;19390;51.460;5.710;2023-11-21T04:00:10;7.20;99.90
33023;DHT22;19390;51.460;5.710;2023-11-21T04:02:36;7.30;99.90
33023;DHT22;19390;51.460;5.710;2023-11-21T04:05:02;7.30;99.90
33023;DHT22;19390;51.460;5.710;2023-11-21T04:07:28;7.20;99.90
33023;DHT22;19390;51.460;5.710;2023-11-21T04:09:54;7.30;99.90
33023;DHT22;19390;51.460;5.710;2023-11-21T04:12:19;7.30;99.90
33023;DHT22;19390;51.460;5.710;2023-11-21T04:14:45;7.30;99.90
33023;DHT22;19390;51.460;5.710;2023-11-21T04:17:11;7.30;99.90
33023;DHT22;19390;51.460;5.710;2023-11-21T04:19:37;7.30;99.90
33023;DHT22;19390;51.460;5.710;2023-11-21T04:22:02;7.40;99.90
33023;DHT22;19390;51.460;5.710;2023-11-21T04:24:29;7.30;99.90
33023;DHT22;19390;51.460;5.710;2023-11-21T04:26:55;7.30;99.90
33023;DHT22;19390;51.460;5.710;2023-11-21T04:29:20;7.30;99.90
33023;DHT22;19390;51.460;5.710;2023-11-21T04:31:46;7.30;99.90
33023;DHT22;19390;51.460;5.710;2023-11-21T04:34:14;7.30;99.90
33023;DHT22;19390;51.460;5.710;2023-11-21T04:36:39;7.20;99.90
33023;DHT22;19390;51.460;5.710;2023-11-21T04:39:05;7.20;99.90
33023;DHT22;19390;51.460;5.710;2023-11-21T04:41:32;7.20;99.90
33023;DHT22;19390;51.460;5.710;2023-11-21T04:43:57;7.20;99.90
33023;DHT22;19390;51.460;5.710;2023-11-21T04:46:24;7.20;99.90
33023;DHT22;19390;51.460;5.710;2023-11-21T04:48:49;7.20;99.90
33023;DHT22;19390;51.460;5.710;2023-11-21T04:51:15;7.10;99.90
33023;DHT22;19390;51.460;5.710;2023-11-21T04:53:40;7.10;99.90
33023;DHT22;19390;51.460;5.710;2023-11-21T04:56:06;7.10;99.90
33023;DHT22;19390;51.460;5.710;2023-11-21T04:58:32;7.10;99.90
33023;DHT22;19390;51.460;5.710;2023-11-21T05:00:58;7.10;99.90
33023;DHT22;19390;51.460;5.710;2023-11-21T05:03:23;7.10;99.90
33023;DHT22;19390;51.460;5.710;2023-11-21T05:05:49;7.10;99.90
33023;DHT22;19390;51.460;5.710;2023-11-21T05:08:15;7.10;99.90
33023;DHT22;19390;51.460;5.710;2023-11-21T05:10:40;7.10;99.90
33023;DHT22;19390;51.460;5.710;2023-11-21T05:13:06;7.00;99.90
33023;DHT22;19390;51.460;5.710;2023-11-21T05:15:36;7.20;99.90
33023;DHT22;19390;51.460;5.710;2023-11-21T05:18:01;7.20;99.90
33023;DHT22;19390;51.460;5.710;2023-11-21T05:20:28;7.20;99.90
33023;DHT22;19390;51.460;5.710;2023-11-21T05:22:53;7.10;99.90
33023;DHT22;19390;51.460;5.710;2023-11-21T05:25:19;7.10;99.90
33023;DHT22;19390;51.460;5.710;2023-11-21T05:27:45;7.10;99.90
33023;DHT22;19390;51.460;5.710;2023-11-21T05:30:12;7.10;99.90
33023;DHT22;19390;51.460;5.710;2023-11-21T05:32:38;7.10;99.90
33023;DHT22;19390;51.460;5.710;2023-11-21T05:35:04;7.10;99.90
33023;DHT22;19390;51.460;5.710;2023-11-21T05:37:35;7.10;99.90
33023;DHT22;19390;51.460;5.710;2023-11-21T05:40:01;7.10;99.90
33023;DHT22;19390;51.460;5.710;2023-11-21T05:42:32;7.10;99.90
33023;DHT22;19390;51.460;5.710;2023-11-21T05:44:57;7.10;99.90
33023;DHT22;19390;51.460;5.710;2023-11-21T05:47:24;7.10;99.90
33023;DHT22;19390;51.460;5.710;2023-11-21T05:49:51;7.10;99.90
33023;DHT22;19390;51.460;5.710;2023-11-21T05:52:17;7.20;99.90
33023;DHT22;19390;51.460;5.710;2023-11-21T05:54:43;7.20;99.90
33023;DHT22;19390;51.460;5.710;2023-11-21T05:57:09;7.20;99.90
33023;DHT22;19390;51.460;5.710;2023-11-21T05:59:34;7.20;99.90
33023;DHT22;19390;51.460;5.710;2023-11-21T06:02:00;7.20;99.90
33023;DHT22;19390;51.460;5.710;2023-11-21T06:04:25;7.10;99.90
33023;DHT22;19390;51.460;5.710;2023-11-21T06:06:52;7.10;99.90
33023;DHT22;19390;51.460;5.710;2023-11-21T06:09:18;7.00;99.90
33023;DHT22;19390;51.460;5.710;2023-11-21T06:11:43;7.00;99.90
33023;DHT22;19390;51.460;5.710;2023-11-21T06:14:09;7.00;99.90
33023;DHT22;19390;51.460;5.710;2023-11-21T06:16:36;7.00;99.90
33023;DHT22;19390;51.460;5.710;2023-11-21T06:19:02;7.00;99.90
33023;DHT22;19390;51.460;5.710;2023-11-21T06:21:27;7.10;99.90
33023;DHT22;19390;51.460;5.710;2023-11-21T06:23:53;7.00;99.90
33023;DHT22;19390;51.460;5.710;2023-11-21T06:26:18;7.10;99.90
33023;DHT22;19390;51.460;5.710;2023-11-21T06:28:44;7.10;99.90
33023;DHT22;19390;51.460;5.710;2023-11-21T06:31:10;7.10;99.90
33023;DHT22;19390;51.460;5.710;2023-11-21T06:33:36;7.10;99.90
33023;DHT22;19390;51.460;5.710;2023-11-21T06:36:01;7.10;99.90
33023;DHT22;19390;51.460;5.710;2023-11-21T06:38:31;7.10;99.90
33023;DHT22;19390;51.460;5.710;2023-11-21T06:40:57;7.20;99.90
33023;DHT22;19390;51.460;5.710;2023-11-21T06:43:23;7.10;99.90
33023;DHT22;19390;51.460;5.710;2023-11-21T06:45:49;7.10;99.90
33023;DHT22;19390;51.460;5.710;2023-11-21T06:48:15;7.10;99.90
33023;DHT22;19390;51.460;5.710;2023-11-21T06:50:40;7.20;99.90
33023;DHT22;19390;51.460;5.710;2023-11-21T06:53:07;7.10;99.90
33023;DHT22;19390;51.460;5.710;2023-11-21T06:55:33;7.20;99.90
33023;DHT22;19390;51.460;5.710;2023-11-21T06:57:59;7.20;99.90
33023;DHT22;19390;51.460;5.710;2023-11-21T07:00:26;7.20;99.90
33023;DHT22;19390;51.460;5.710;2023-11-21T07:02:54;7.20;99.90
33023;DHT22;19390;51.460;5.710;2023-11-21T07:05:21;7.30;99.90
33023;DHT22;19390;51.460;5.710;2023-11-21T07:07:48;7.40;99.90
33023;DHT22;19390;51.460;5.710;2023-11-21T07:10:13;7.30;99.90
33023;DHT22;19390;51.460;5.710;2023-11-21T07:12:39;7.40;99.90
33023;DHT22;19390;51.460;5.710;2023-11-21T07:15:06;7.30;99.90
33023;DHT22;19390;51.460;5.710;2023-11-21T07:17:35;7.30;99.90
33023;DHT22;19390;51.460;5.710;2023-11-21T07:20:02;7.30;99.90
33023;DHT22;19390;51.460;5.710;2023-11-21T07:22:28;7.40;99.90
33023;DHT22;19390;51.460;5.710;2023-11-21T07:24:55;7.40;99.90
33023;DHT22;19390;51.460;5.710;2023-11-21T07:27:22;7.40;99.90
33023;DHT22;19390;51.460;5.710;2023-11-21T07:29:47;7.40;99.90
33023;DHT22;19390;51.460;5.710;2023-11-21T07:32:14;7.40;99.90
33023;DHT22;19390;51.460;5.710;2023-11-21T07:34:40;7.40;99.90
33023;DHT22;19390;51.460;5.710;2023-11-21T07:37:07;7.40;99.90
33023;DHT22;19390;51.460;5.710;2023-11-21T07:39:34;7.50;99.90
33023;DHT22;19390;51.460;5.710;2023-11-21T07:42:01;7.50;99.90
33023;DHT22;19390;51.460;5.710;2023-11-21T07:44:28;7.60;99.90
33023;DHT22;19390;51.460;5.710;2023-11-21T07:46:54;7.60;99.90
33023;DHT22;19390;51.460;5.710;2023-11-21T07:49:23;7.60;99.90
33023;DHT22;19390;51.460;5.710;2023-11-21T07:51:48;7.60;99.90
33023;DHT22;19390;51.460;5.710;2023-11-21T07:54:14;7.70;99.90
33023;DHT22;19390;51.460;5.710;2023-11-21T07:56:41;7.80;99.90
33023;DHT22;19390;51.460;5.710;2023-11-21T07:59:07;7.80;99.90
33023;DHT22;19390;51.460;5.710;2023-11-21T08:01:33;7.80;99.90
33023;DHT22;19390;51.460;5.710;2023-11-21T08:03:58;7.80;99.90
33023;DHT22;19390;51.460;5.710;2023-11-21T08:06:31;7.80;99.90
33023;DHT22;19390;51.460;5.710;2023-11-21T08:08:58;7.80;99.90
33023;DHT22;19390;51.460;5.710;2023-11-21T08:11:24;7.80;99.90
33023;DHT22;19390;51.460;5.710;2023-11-21T08:13:50;7.80;99.90
33023;DHT22;19390;51.460;5.710;2023-11-21T08:16:15;7.80;99.90
33023;DHT22;19390;51.460;5.710;2023-11-21T08:18:42;7.80;99.90
33023;DHT22;19390;51.460;5.710;2023-11-21T08:21:08;7.90;99.90
33023;DHT22;19390;51.460;5.710;2023-11-21T08:23:34;7.90;99.90
33023;DHT22;19390;51.460;5.710;2023-11-21T08:26:00;7.90;99.90
33023;DHT22;19390;51.460;5.710;2023-11-21T08:28:25;8.00;99.90
33023;DHT22;19390;51.460;5.710;2023-11-21T08:30:53;8.00;99.90
33023;DHT22;19390;51.460;5.710;2023-11-21T08:33:22;8.10;99.90
33023;DHT22;19390;51.460;5.710;2023-11-21T08:35:48;8.20;99.90
33023;DHT22;19390;51.460;5.710;2023-11-21T08:38:14;8.20;99.90
33023;DHT22;19390;51.460;5.710;2023-11-21T08:40:39;8.30;99.90
33023;DHT22;19390;51.460;5.710;2023-11-21T08:43:05;8.10;99.90
33023;DHT22;19390;51.460;5.710;2023-11-21T08:45:31;8.10;99.90
33023;DHT22;19390;51.460;5.710;2023-11-21T08:47:59;8.10;99.90
33023;DHT22;19390;51.460;5.710;2023-11-21T08:50:25;8.10;99.90
33023;DHT22;19390;51.460;5.710;2023-11-21T08:52:50;8.20;99.90
33023;DHT22;19390;51.460;5.710;2023-11-21T08:55:16;8.20;99.90
33023;DHT22;19390;51.460;5.710;2023-11-21T08:57:44;8.40;99.90
33023;DHT22;19390;51.460;5.710;2023-11-21T09:00:10;8.40;99.90
33023;DHT22;19390;51.460;5.710;2023-11-21T09:02:41;8.40;99.90
33023;DHT22;19390;51.460;5.710;2023-11-21T09:05:08;8.40;99.90
33023;DHT22;19390;51.460;5.710;2023-11-21T09:07:35;8.50;99.90
33023;DHT22;19390;51.460;5.710;2023-11-21T09:10:01;8.50;99.90
33023;DHT22;19390;51.460;5.710;2023-11-21T09:12:27;8.50;99.90
33023;DHT22;19390;51.460;5.710;2023-11-21T09:14:52;8.50;99.90
33023;DHT22;19390;51.460;5.710;2023-11-21T09:17:18;8.40;99.90
33023;DHT22;19390;51.460;5.710;2023-11-21T09:19:44;8.60;99.90
33023;DHT22;19390;51.460;5.710;2023-11-21T09:22:12;8.50;99.90
33023;DHT22;19390;51.460;5.710;2023-11-21T09:24:38;8.60;99.90
33023;DHT22;19390;51.460;5.710;2023-11-21T09:27:04;8.60;99.90
33023;DHT22;19390;51.460;5.710;2023-11-21T09:29:30;8.60;99.90
33023;DHT22;19390;51.460;5.710;2023-11-21T09:31:57;8.70;99.90
33023;DHT22;19390;51.460;5.710;2023-11-21T09:34:25;8.70;99.90
33023;DHT22;19390;51.460;5.710;2023-11-21T09:36:51;8.70;99.90
33023;DHT22;19390;51.460;5.710;2023-11-21T09:39:17;8.70;99.90
33023;DHT22;19390;51.460;5.710;2023-11-21T09:41:49;8.70;99.90
33023;DHT22;19390;51.460;5.710;2023-11-21T09:44:26;8.70;99.90
33023;DHT22;19390;51.460;5.710;2023-11-21T09:46:59;8.80;99.90
33023;DHT22;19390;51.460;5.710;2023-11-21T09:49:26;8.90;99.90
33023;DHT22;19390;51.460;5.710;2023-11-21T09:51:55;9.10;99.90
33023;DHT22;19390;51.460;5.710;2023-11-21T09:54:21;9.10;99.90
33023;DHT22;19390;51.460;5.710;2023-11-21T09:56:47;9.10;99.90
33023;DHT22;19390;51.460;5.710;2023-11-21T09:59:15;9.20;99.90
33023;DHT22;19390;51.460;5.710;2023-11-21T10:01:41;9.20;99.90
33023;DHT22;19390;51.460;5.710;2023-11-21T10:04:10;9.30;99.90
33023;DHT22;19390;51.460;5.710;2023-11-21T10:06:40;9.40;99.90
33023;DHT22;19390;51.460;5.710;2023-11-21T10:09:12;9.30;99.90
33023;DHT22;19390;51.460;5.710;2023-11-21T10:11:42;9.40;99.90
33023;DHT22;19390;51.460;5.710;2023-11-21T10:14:12;9.50;99.90
33023;DHT22;19390;51.460;5.710;2023-11-21T10:16:40;9.50;99.90
33023;DHT22;19390;51.460;5.710;2023-11-21T10:19:10;9.50;99.90
33023;DHT22;19390;51.460;5.710;2023-11-21T10:21:37;9.60;99.90
33023;DHT22;19390;51.460;5.710;2023-11-21T10:24:03;9.50;99.90
33023;DHT22;19390;51.460;5.710;2023-11-21T10:26:29;9.60;99.90
33023;DHT22;19390;51.460;5.710;2023-11-21T10:29:01;9.60;99.90
33023;DHT22;19390;51.460;5.710;2023-11-21T10:31:32;9.50;99.90
33023;DHT22;19390;51.460;5.710;2023-11-21T10:34:17;9.50;99.90
33023;DHT22;19390;51.460;5.710;2023-11-21T10:36:43;9.60;99.90
33023;DHT22;19390;51.460;5.710;2023-11-21T10:39:09;9.60;99.90
33023;DHT22;19390;51.460;5.710;2023-11-21T10:41:35;9.60;99.90
33023;DHT22;19390;51.460;5.710;2023-11-21T10:44:02;9.70;99.90
33023;DHT22;19390;51.460;5.710;2023-11-21T10:46:33;9.80;99.90
33023;DHT22;19390;51.460;5.710;2023-11-21T10:48:59;9.90;99.90
33023;DHT22;19390;51.460;5.710;2023-11-21T10:51:25;9.90;99.90
33023;DHT22;19390;51.460;5.710;2023-11-21T10:53:54;9.80;99.90
33023;DHT22;19390;51.460;5.710;2023-11-21T10:56:23;9.80;99.90
33023;DHT22;19390;51.460;5.710;2023-11-21T10:58:49;9.80;99.90
33023;DHT22;19390;51.460;5.710;2023-11-21T11:01:19;9.80;99.90
33023;DHT22;19390;51.460;5.710;2023-11-21T11:03:51;9.90;99.90
33023;DHT22;19390;51.460;5.710;2023-11-21T11:06:27;9.90;99.90
33023;DHT22;19390;51.460;5.710;2023-11-21T11:08:53;10.00;99.90
33023;DHT22;19390;51.460;5.710;2023-11-21T11:11:19;10.10;99.90
33023;DHT22;19390;51.460;5.710;2023-11-21T11:13:45;10.10;99.90
33023;DHT22;19390;51.460;5.710;2023-11-21T11:16:13;10.20;99.90
33023;DHT22;19390;51.460;5.710;2023-11-21T11:18:42;10.20;99.90
33023;DHT22;19390;51.460;5.710;2023-11-21T11:21:43;10.30;99.90
33023;DHT22;19390;51.460;5.710;2023-11-21T11:32:43;10.40;99.90
33023;DHT22;19390;51.460;5.710;2023-11-21T11:35:26;10.40;99.90
33023;DHT22;19390;51.460;5.710;2023-11-21T11:37:56;10.50;99.90
33023;DHT22;19390;51.460;5.710;2023-11-21T11:40:22;10.50;99.90
33023;DHT22;19390;51.460;5.710;2023-11-21T11:42:58;10.40;99.90
33023;DHT22;19390;51.460;5.710;2023-11-21T11:45:26;10.30;99.90
33023;DHT22;19390;51.460;5.710;2023-11-21T11:47:57;10.30;99.90
33023;DHT22;19390;51.460;5.710;2023-11-21T11:50:23;10.30;99.90
33023;DHT22;19390;51.460;5.710;2023-11-21T11:52:51;10.30;99.90
33023;DHT22;19390;51.460;5.710;2023-11-21T11:55:19;10.30;99.90
33023;DHT22;19390;51.460;5.710;2023-11-21T11:57:47;10.30;99.90
33023;DHT22;19390;51.460;5.710;2023-11-21T12:00:18;10.30;99.90
33023;DHT22;19390;51.460;5.710;2023-11-21T12:02:52;10.30;99.90
33023;DHT22;19390;51.460;5.710;2023-11-21T12:05:20;10.30;99.90
33023;DHT22;19390;51.460;5.710;2023-11-21T12:07:46;10.40;99.90
33023;DHT22;19390;51.460;5.710;2023-11-21T12:10:16;10.50;99.90
33023;DHT22;19390;51.460;5.710;2023-11-21T12:13:06;10.50;99.90
33023;DHT22;19390;51.460;5.710;2023-11-21T12:15:36;10.40;99.90
33023;DHT22;19390;51.460;5.710;2023-11-21T12:18:02;10.40;99.90
33023;DHT22;19390;51.460;5.710;2023-11-21T12:20:29;10.50;99.90
33023;DHT22;19390;51.460;5.710;2023-11-21T12:22:59;10.40;99.90
33023;DHT22;19390;51.460;5.710;2023-11-21T12:25:29;10.30;99.90
33023;DHT22;19390;51.460;5.710;2023-11-21T12:27:57;10.30;99.90
33023;DHT22;19390;51.460;5.710;2023-11-21T12:30:25;10.30;99.90
33023;DHT22;19390;51.460;5.710;2023-11-21T12:32:54;10.30;99.90
33023;DHT22;19390;51.460;5.710;2023-11-21T12:35:23;10.40;99.90
33023;DHT22;19390;51.460;5.710;2023-11-21T12:37:49;10.30;99.90
33023;DHT22;19390;51.460;5.710;2023-11-21T12:40:16;10.30;99.90
33023;DHT22;19390;51.460;5.710;2023-11-21T12:42:47;10.30;99.90
33023;DHT22;19390;51.460;5.710;2023-11-21T12:47:50;10.30;99.90
33023;DHT22;19390;51.460;5.710;2023-11-21T12:50:22;10.20;99.90
33023;DHT22;19390;51.460;5.710;2023-11-21T12:52:57;10.20;99.90
33023;DHT22;19390;51.460;5.710;2023-11-21T12:55:24;10.20;99.90
33023;DHT22;19390;51.460;5.710;2023-11-21T12:57:54;10.20;99.90
33023;DHT22;19390;51.460;5.710;2023-11-21T13:00:28;10.30;99.90
33023;DHT22;19390;51.460;5.710;2023-11-21T13:02:58;10.20;99.90
33023;DHT22;19390;51.460;5.710;2023-11-21T13:05:42;10.20;99.90
33023;DHT22;19390;51.460;5.710;2023-11-21T13:08:10;10.20;99.90
33023;DHT22;19390;51.460;5.710;2023-11-21T13:10:43;10.10;99.90
33023;DHT22;19390;51.460;5.710;2023-11-21T13:13:12;10.10;99.90
33023;DHT22;19390;51.460;5.710;2023-11-21T13:15:59;10.10;99.90
33023;DHT22;19390;51.460;5.710;2023-11-21T13:18:31;10.20;99.90
33023;DHT22;19390;51.460;5.710;2023-11-21T13:21:05;10.20;99.90
33023;DHT22;19390;51.460;5.710;2023-11-21T13:23:41;10.30;99.90
33023;DHT22;19390;51.460;5.710;2023-11-21T13:26:07;10.30;99.90
33023;DHT22;19390;51.460;5.710;2023-11-21T13:28:34;10.40;99.90
33023;DHT22;19390;51.460;5.710;2023-11-21T13:31:01;10.40;99.90
33023;DHT22;19390;51.460;5.710;2023-11-21T13:33:29;10.50;99.90
33023;DHT22;19390;51.460;5.710;2023-11-21T13:35:55;10.40;99.90
33023;DHT22;19390;51.460;5.710;2023-11-21T13:38:22;10.40;99.90
33023;DHT22;19390;51.460;5.710;2023-11-21T13:40:55;10.40;99.90
33023;DHT22;19390;51.460;5.710;2023-11-21T13:43:24;10.50;99.90
33023;DHT22;19390;51.460;5.710;2023-11-21T13:45:52;10.50;99.90
33023;DHT22;19390;51.460;5.710;2023-11-21T13:48:26;10.50;99.90
33023;DHT22;19390;51.460;5.710;2023-11-21T13:50:59;10.50;99.90
33023;DHT22;19390;51.460;5.710;2023-11-21T13:53:33;10.40;99.90
33023;DHT22;19390;51.460;5.710;2023-11-21T13:56:02;10.30;99.90
33023;DHT22;19390;51.460;5.710;2023-11-21T13:58:27;10.30;99.90
33023;DHT22;19390;51.460;5.710;2023-11-21T14:01:11;10.30;99.90
33023;DHT22;19390;51.460;5.710;2023-11-21T14:03:59;10.30;99.90
33023;DHT22;19390;51.460;5.710;2023-11-21T14:06:49;10.20;99.90
33023;DHT22;19390;51.460;5.710;2023-11-21T14:09:20;10.10;99.90
33023;DHT22;19390;51.460;5.710;2023-11-21T14:11:55;10.20;99.90
33023;DHT22;19390;51.460;5.710;2023-11-21T14:14:24;10.20;99.90
33023;DHT22;19390;51.460;5.710;2023-11-21T14:16:51;10.30;99.90
33023;DHT22;19390;51.460;5.710;2023-11-21T14:19:18;10.20;99.90
33023;DHT22;19390;51.460;5.710;2023-11-21T14:21:44;10.30;99.90
33023;DHT22;19390;51.460;5.710;2023-11-21T14:24:14;10.30;99.90
33023;DHT22;19390;51.460;5.710;2023-11-21T14:26:41;10.30;99.90
33023;DHT22;19390;51.460;5.710;2023-11-21T14:29:08;10.30;99.90
33023;DHT22;19390;51.460;5.710;2023-11-21T14:31:35;10.30;99.90
33023;DHT22;19390;51.460;5.710;2023-11-21T14:34:00;10.30;99.90
33023;DHT22;19390;51.460;5.710;2023-11-21T14:36:31;10.30;99.90
33023;DHT22;19390;51.460;5.710;2023-11-21T14:38:57;10.30;99.90
33023;DHT22;19390;51.460;5.710;2023-11-21T14:41:22;10.40;99.90
33023;DHT22;19390;51.460;5.710;2023-11-21T14:43:50;10.40;99.90
33023;DHT22;19390;51.460;5.710;2023-11-21T14:46:16;10.30;99.90
33023;DHT22;19390;51.460;5.710;2023-11-21T14:48:45;10.20;99.90
33023;DHT22;19390;51.460;5.710;2023-11-21T14:51:25;10.30;99.90
33023;DHT22;19390;51.460;5.710;2023-11-21T14:53:59;10.20;99.90
33023;DHT22;19390;51.460;5.710;2023-11-21T14:56:32;10.10;99.90
33023;DHT22;19390;51.460;5.710;2023-11-21T14:59:00;10.10;99.90
33023;DHT22;19390;51.460;5.710;2023-11-21T15:01:32;10.10;99.90
33023;DHT22;19390;51.460;5.710;2023-11-21T15:04:16;10.10;99.90
33023;DHT22;19390;51.460;5.710;2023-11-21T15:06:53;10.10;99.90
33023;DHT22;19390;51.460;5.710;2023-11-21T15:09:21;10.10;99.90
33023;DHT22;19390;51.460;5.710;2023-11-21T15:12:02;10.10;99.90
33023;DHT22;19390;51.460;5.710;2023-11-21T15:14:49;10.00;99.90
33023;DHT22;19390;51.460;5.710;2023-11-21T15:17:18;9.90;99.90
33023;DHT22;19390;51.460;5.710;2023-11-21T15:19:56;9.90;99.90
33023;DHT22;19390;51.460;5.710;2023-11-21T15:22:22;10.00;99.90
33023;DHT22;19390;51.460;5.710;2023-11-21T15:24:48;9.90;99.90
33023;DHT22;19390;51.460;5.710;2023-11-21T15:27:15;9.80;99.90
33023;DHT22;19390;51.460;5.710;2023-11-21T15:29:41;9.90;99.90
33023;DHT22;19390;51.460;5.710;2023-11-21T15:32:07;9.90;99.90
33023;DHT22;19390;51.460;5.710;2023-11-21T15:34:37;9.90;99.90
33023;DHT22;19390;51.460;5.710;2023-11-21T15:37:04;9.90;99.90
33023;DHT22;19390;51.460;5.710;2023-11-21T15:39:31;9.90;99.90
33023;DHT22;19390;51.460;5.710;2023-11-21T15:41:57;10.00;99.90
33023;DHT22;19390;51.460;5.710;2023-11-21T15:44:24;10.00;99.90
33023;DHT22;19390;51.460;5.710;2023-11-21T15:46:51;10.00;99.90
33023;DHT22;19390;51.460;5.710;2023-11-21T15:49:17;9.90;99.90
33023;DHT22;19390;51.460;5.710;2023-11-21T15:51:47;10.00;99.90
33023;DHT22;19390;51.460;5.710;2023-11-21T15:54:21;10.00;99.90
33023;DHT22;19390;51.460;5.710;2023-11-21T15:56:47;9.90;99.90